ADDS METAR Data INFO
IDs: Format: Raw Decoded Include TAF

Data at: 2011 UTC 19 Oct 2017

KISP 191956Z 22013KT 10SM FEW250 19/10 A3012 RMK AO2 SLP200 T01890100
KISP 191856Z 21012KT 10SM FEW250 19/08 A3014 RMK AO2 SLP206 T01940083
KISP 191756Z 23013G22KT 10SM FEW250 20/07 A3017 RMK AO2 SLP217 T02000067 10206 20122 58024
KISP 191656Z 22017G23KT 10SM FEW250 20/07 A3020 RMK AO2 SLP226 T02000072
KISP 191556Z 21012KT 10SM FEW250 19/08 A3023 RMK AO2 SLP236 T01940083
KISP 191456Z 23011KT 10SM FEW250 19/09 A3024 RMK AO2 SLP240 T01890089 58004
KISP 191356Z 22009KT 10SM FEW250 18/11 A3026 RMK AO2 SLP245 T01780111
KISP 191256Z 23005KT 10SM FEW250 16/13 A3025 RMK AO2 SLP244 T01560128
KISP 191156Z 25003KT 10SM FEW250 12/11 A3026 RMK AO2 SLP245 T01170106 10122 20094 54000
KISP 191056Z 24003KT 10SM FEW250 11/10 A3025 RMK AO2 SLP244 T01110100
KISP 190956Z 00000KT 10SM FEW250 10/09 A3026 RMK AO2 SLP246 T01000094
KISP 190856Z AUTO 00000KT 10SM CLR 10/09 A3026 RMK AO2 SLP245 T01000089 55005
KISP 190756Z AUTO 00000KT 10SM CLR 11/10 A3025 RMK AO2 SLP244 T01060100
KISP 190656Z AUTO 22003KT 10SM CLR 12/11 A3027 RMK AO2 SLP248 T01170106
KISP 190556Z AUTO 24004KT 10SM CLR 12/11 A3027 RMK AO2 SLP250 T01170111 10144 20117 56006
KISP 190456Z AUTO 00000KT 10SM CLR 12/12 A3027 RMK AO2 SLP250 T01220117 402220072
KISP 190356Z 00000KT 8SM CLR 13/12 A3028 RMK AO2 SLP253 LAST T01280117
KISP 190256Z 00000KT 10SM CLR 12/11 A3029 RMK AO2 SLP256 T01170111 50002
KISP 190156Z 00000KT 10SM CLR 13/12 A3029 RMK AO2 SLP257 T01280117
KISP 190056Z 25003KT 10SM CLR 14/12 A3029 RMK AO2 SLP255 T01390122
KISP 182356Z 24003KT 10SM CLR 14/12 A3028 RMK AO2 SLP254 T01440122 10217 20144 51008
KISP 182256Z 23004KT 10SM CLR 15/12 A3028 RMK AO2 SLP252 T01500117
KISP 182156Z 22008KT 10SM FEW250 17/10 A3027 RMK AO2 SLP248 T01720100
KISP 182056Z 22006KT 10SM FEW250 18/11 A3026 RMK AO2 SLP246 T01830106 55004
KISP 181956Z 18009KT 10SM FEW250 20/09 A3026 RMK AO2 SLP245 T02000094
KISP 181856Z 17008KT 10SM FEW250 21/10 A3026 RMK AO2 SLP248 T02110100
KISP 181756Z VRB03KT 10SM FEW250 22/08 A3027 RMK AO2 SLP250 T02170083 10222 20100 58013
KISP 181656Z 00000KT 10SM FEW250 21/08 A3029 RMK AO2 SLP257 T02110078
KISP 181556Z 00000KT 10SM FEW250 19/07 A3031 RMK AO2 SLP263 T01940072
KISP 181456Z 32004KT 10SM FEW250 17/07 A3031 RMK AO2 SLP263 T01720067 50002
KISP 181356Z 28004KT 10SM FEW250 15/06 A3032 RMK AO2 SLP265 T01500061
KISP 181256Z 26006KT 10SM FEW250 12/06 A3031 RMK AO2 SLP264 T01220056
KISP 181156Z 26005KT 10SM CLR 10/05 A3030 RMK AO2 SLP262 T01000050 10100 20072 51009
KISP 181056Z 25004KT 10SM CLR 09/05 A3030 RMK AO2 SLP260 T00890050
KISP 180956Z 29003KT 10SM CLR 08/04 A3029 RMK AO2 SLP258 T00780044
KISP 180856Z AUTO 25004KT 10SM CLR 07/04 A3028 RMK AO2 SLP253 T00720044 55001